createdAt,value
2022-08-05T00:00:46.615Z,99.99
2022-08-05T00:01:48.994Z,99.99
2022-08-05T00:02:49.137Z,99.99
2022-08-05T00:03:43.950Z,99.99
2022-08-05T00:04:43.931Z,99.99
2022-08-05T00:06:05.729Z,99.99
2022-08-05T00:06:43.869Z,99.99
2022-08-05T00:08:00.094Z,99.99
2022-08-05T00:08:43.846Z,99.99
2022-08-05T00:09:44.051Z,99.99
2022-08-05T00:10:43.821Z,99.99
2022-08-05T00:11:48.440Z,99.99
2022-08-05T00:12:48.490Z,99.99
2022-08-05T00:13:43.777Z,99.99
2022-08-05T00:14:43.754Z,99.99
2022-08-05T00:15:56.349Z,99.99
2022-08-05T00:16:52.983Z,99.99
2022-08-05T00:17:43.710Z,99.99
2022-08-05T00:18:44.380Z,99.99
2022-08-05T00:19:45.821Z,97.81
2022-08-05T00:20:43.663Z,95.78
2022-08-05T00:21:43.648Z,94.03
2022-08-05T00:22:47.181Z,93.11
2022-08-05T00:23:45.834Z,91.50
2022-08-05T00:24:43.603Z,90.82
2022-08-05T00:25:45.590Z,90.14
2022-08-05T00:26:50.721Z,90.14
2022-08-05T00:27:43.599Z,89.70
2022-08-05T00:28:43.545Z,89.31
2022-08-05T00:29:43.537Z,89.76
2022-08-05T00:30:44.061Z,90.05
2022-08-05T00:32:10.471Z,89.95
2022-08-05T00:32:43.490Z,90.14
2022-08-05T00:34:54.967Z,89.95
2022-08-05T00:35:05.542Z,90.05
2022-08-05T00:35:47.727Z,90.14
2022-08-05T00:37:09.721Z,90.53
2022-08-05T00:37:53.256Z,91.41
2022-08-05T00:38:43.423Z,91.50
2022-08-05T00:39:44.476Z,92.28
2022-08-05T00:40:53.141Z,92.08
2022-08-05T00:41:54.965Z,92.91
2022-08-05T00:42:43.357Z,92.72
2022-08-05T00:43:47.282Z,93.01
2022-08-05T00:44:43.328Z,93.59
2022-08-05T00:45:44.024Z,94.17
2022-08-05T00:46:43.771Z,94.37
2022-08-05T00:47:56.833Z,94.71
2022-08-05T00:48:51.492Z,94.90
2022-08-05T00:49:44.644Z,95.78
2022-08-05T00:50:44.351Z,95.48
2022-08-05T00:51:50.978Z,96.26
2022-08-05T00:52:45.499Z,96.16
2022-08-05T00:54:00.765Z,96.75
2022-08-05T00:54:43.372Z,97.23
2022-08-05T00:55:43.739Z,97.42
2022-08-05T00:56:45.064Z,97.28
2022-08-05T00:57:58.282Z,97.08
2022-08-05T00:58:44.961Z,98.49
2022-08-05T00:59:44.739Z,97.71
2022-08-05T01:00:43.141Z,98.15
2022-08-05T01:01:48.526Z,98.54
2022-08-05T01:02:43.096Z,98.63
2022-08-05T01:03:43.082Z,99.41
2022-08-05T01:04:43.069Z,98.83
2022-08-05T01:05:43.066Z,99.70
2022-08-05T01:06:46.749Z,99.99
2022-08-05T01:08:29.824Z,99.99
2022-08-05T01:08:44.532Z,99.99
2022-08-05T01:09:42.992Z,99.99
2022-08-05T01:10:52.436Z,99.99
2022-08-05T01:11:42.970Z,99.99
2022-08-05T01:12:54.267Z,99.99
2022-08-05T01:13:59.082Z,99.99
2022-08-05T01:14:42.935Z,99.99
2022-08-05T01:15:47.983Z,99.99
2022-08-05T01:16:44.364Z,99.99
2022-08-05T01:17:44.101Z,99.99
2022-08-05T01:18:42.871Z,99.99
2022-08-05T01:20:02.306Z,99.99
2022-08-05T01:20:42.848Z,99.99
2022-08-05T01:21:42.838Z,99.99
2022-08-05T01:22:42.823Z,99.99
2022-08-05T01:23:42.804Z,99.99
2022-08-05T01:24:42.804Z,99.99
2022-08-05T01:25:42.783Z,99.99
2022-08-05T01:26:42.765Z,99.99
2022-08-05T01:27:55.317Z,99.99
2022-08-05T01:28:42.738Z,99.99
2022-08-05T01:29:43.020Z,99.99
2022-08-05T01:30:50.600Z,99.99
2022-08-05T01:31:45.182Z,99.99
2022-08-05T01:32:42.682Z,99.99
2022-08-05T01:33:42.672Z,99.99
2022-08-05T01:34:42.659Z,99.99
2022-08-05T01:35:51.195Z,99.99
2022-08-05T01:36:47.004Z,99.99
2022-08-05T01:37:44.367Z,99.99
2022-08-05T01:38:42.601Z,99.99
2022-08-05T01:39:47.016Z,99.99
2022-08-05T01:40:42.586Z,99.99
2022-08-05T01:41:44.498Z,99.99
2022-08-05T01:42:42.548Z,99.99
2022-08-05T01:43:42.558Z,99.99
2022-08-05T01:44:42.517Z,99.99
2022-08-05T01:45:42.860Z,99.99
2022-08-05T01:46:46.364Z,99.99
2022-08-05T01:47:43.491Z,99.99
2022-08-05T01:48:42.470Z,99.99
2022-08-05T01:49:59.991Z,99.99
2022-08-05T01:50:50.897Z,99.99
2022-08-05T01:51:42.426Z,99.99
2022-08-05T01:52:42.419Z,99.99
2022-08-05T01:53:57.699Z,99.99
2022-08-05T01:54:46.101Z,99.99
2022-08-05T01:55:42.383Z,99.99
2022-08-05T01:58:12.152Z,99.99
2022-08-05T01:58:12.153Z,99.99
2022-08-05T01:58:45.104Z,99.99
2022-08-05T01:59:42.332Z,99.99
2022-08-05T02:00:42.313Z,99.99
2022-08-05T02:01:42.313Z,99.99
2022-08-05T02:02:51.102Z,99.99
2022-08-05T02:03:42.270Z,99.99
2022-08-05T02:04:42.245Z,99.99
2022-08-05T02:05:42.680Z,99.99
2022-08-05T02:06:42.219Z,99.99
2022-08-05T02:07:42.206Z,99.99
2022-08-05T02:08:44.826Z,99.99
2022-08-05T02:09:42.175Z,99.99
2022-08-05T02:10:42.189Z,99.99
2022-08-05T02:11:42.493Z,99.99
2022-08-05T02:12:42.134Z,99.99
2022-08-05T02:13:53.403Z,99.99
2022-08-05T02:14:42.106Z,99.99
2022-08-05T02:15:42.106Z,99.99
2022-08-05T02:16:42.117Z,99.99
2022-08-05T02:18:28.136Z,99.99
2022-08-05T02:18:42.194Z,99.99
2022-08-05T02:19:47.201Z,99.99
2022-08-05T02:20:42.026Z,99.99
2022-08-05T02:21:43.353Z,99.99
2022-08-05T02:22:42.001Z,99.99
2022-08-05T02:23:41.983Z,99.99
2022-08-05T02:24:41.965Z,99.99
2022-08-05T02:25:49.968Z,99.99
2022-08-05T02:26:53.796Z,99.99
2022-08-05T02:27:59.830Z,99.99
2022-08-05T02:28:45.812Z,99.99
2022-08-05T02:29:59.556Z,99.99
2022-08-05T02:30:51.538Z,99.99
2022-08-05T02:31:41.872Z,99.99
2022-08-05T02:32:41.858Z,99.99
2022-08-05T02:33:41.846Z,99.99
2022-08-05T02:34:41.829Z,99.99
2022-08-05T02:35:50.992Z,99.99
2022-08-05T02:36:41.809Z,99.99
2022-08-05T02:37:41.792Z,99.99
2022-08-05T02:38:41.778Z,99.99
2022-08-05T02:39:41.797Z,99.99
2022-08-05T02:40:41.751Z,99.99
2022-08-05T02:41:58.112Z,99.99
2022-08-05T02:42:41.715Z,99.99
2022-08-05T02:44:02.663Z,99.99
2022-08-05T02:44:41.685Z,99.99
2022-08-05T02:45:51.969Z,99.99
2022-08-05T02:46:53.397Z,99.99
2022-08-05T02:48:07.515Z,99.99
2022-08-05T02:48:41.632Z,99.99
2022-08-05T02:49:41.617Z,99.99
2022-08-05T02:50:43.542Z,99.99
2022-08-05T02:52:03.050Z,99.99
2022-08-05T02:52:41.575Z,99.99
2022-08-05T02:53:41.559Z,99.99
2022-08-05T02:54:42.284Z,99.99
2022-08-05T02:55:54.282Z,99.99
2022-08-05T02:56:41.512Z,99.99
2022-08-05T02:58:09.161Z,99.99
2022-08-05T02:58:43.674Z,99.99
2022-08-05T02:59:50.248Z,99.99
2022-08-05T03:00:41.455Z,99.99
2022-08-05T03:01:41.506Z,99.99
2022-08-05T03:02:42.894Z,99.99
2022-08-05T03:04:02.733Z,99.99
2022-08-05T03:04:41.416Z,99.99
2022-08-05T03:06:53.575Z,99.99
2022-08-05T03:06:55.565Z,99.99
2022-08-05T03:07:59.179Z,99.99
2022-08-05T03:08:42.738Z,99.99
2022-08-05T03:09:43.967Z,99.99
2022-08-05T03:10:41.315Z,99.99
2022-08-05T03:11:55.202Z,99.99
2022-08-05T03:12:41.319Z,99.99
2022-08-05T03:13:52.019Z,99.99
2022-08-05T03:14:46.148Z,99.99
2022-08-05T03:15:41.253Z,99.99
2022-08-05T03:16:41.253Z,99.99
2022-08-05T03:17:42.025Z,99.99
2022-08-05T03:18:42.110Z,99.99
2022-08-05T03:19:41.857Z,99.99
2022-08-05T03:20:44.701Z,99.99
2022-08-05T03:21:41.501Z,99.99
2022-08-05T03:22:44.193Z,99.99
2022-08-05T03:23:41.137Z,99.99
2022-08-05T03:24:41.135Z,99.99
2022-08-05T03:26:04.366Z,99.99
2022-08-05T03:26:41.110Z,99.99
2022-08-05T03:28:00.141Z,99.99
2022-08-05T03:28:41.068Z,99.99
2022-08-05T03:29:45.721Z,99.99
2022-08-05T03:30:41.271Z,99.99
2022-08-05T03:31:56.704Z,99.99
2022-08-05T03:32:41.003Z,99.99
2022-08-05T03:33:50.941Z,99.99
2022-08-05T03:34:40.980Z,99.99
2022-08-05T03:35:41.831Z,99.99
2022-08-05T03:36:40.952Z,99.99
2022-08-05T03:37:46.382Z,99.99
2022-08-05T03:38:40.922Z,99.99
2022-08-05T03:39:58.431Z,99.99
2022-08-05T03:40:41.016Z,99.99
2022-08-05T03:41:45.422Z,99.99
2022-08-05T03:42:51.401Z,99.99
2022-08-05T03:44:09.366Z,99.99
2022-08-05T03:44:40.834Z,99.99
2022-08-05T03:45:57.290Z,99.99
2022-08-05T03:46:40.802Z,99.99
2022-08-05T03:47:41.443Z,99.99
2022-08-05T03:48:40.771Z,99.99
2022-08-05T03:49:52.038Z,99.99
2022-08-05T03:50:40.742Z,99.99
2022-08-05T03:52:36.872Z,99.99
2022-08-05T03:54:59.221Z,99.99
2022-08-05T03:55:50.894Z,99.99
2022-08-05T03:55:52.466Z,99.99
2022-08-05T03:56:05.757Z,99.99
2022-08-05T03:56:41.162Z,99.99
2022-08-05T03:57:42.660Z,99.99
2022-08-05T03:58:41.107Z,99.99
2022-08-05T03:59:46.976Z,99.99
2022-08-05T04:00:42.112Z,99.99
2022-08-05T04:01:40.652Z,99.99
2022-08-05T04:02:51.868Z,99.99
2022-08-05T04:03:40.565Z,99.99
2022-08-05T04:04:40.545Z,99.99
2022-08-05T04:05:40.525Z,99.99
2022-08-05T04:06:47.510Z,99.99
2022-08-05T04:07:53.033Z,99.99
2022-08-05T04:08:40.490Z,99.99
2022-08-05T04:09:53.613Z,99.99
2022-08-05T04:10:40.464Z,99.99
2022-08-05T04:11:47.256Z,99.99
2022-08-05T04:13:04.054Z,99.99
2022-08-05T04:13:50.354Z,99.99
2022-08-05T04:14:40.395Z,99.99
2022-08-05T04:15:52.669Z,99.99
2022-08-05T04:16:40.363Z,99.99
2022-08-05T04:17:57.351Z,99.99
2022-08-05T04:18:40.334Z,99.99
2022-08-05T04:19:40.317Z,99.99
2022-08-05T04:20:41.385Z,99.99
2022-08-05T04:22:09.783Z,99.99
2022-08-05T04:22:40.269Z,99.99
2022-08-05T04:24:05.239Z,99.99
2022-08-05T04:24:44.603Z,99.99
2022-08-05T04:25:57.883Z,99.99
2022-08-05T04:26:40.221Z,99.99
2022-08-05T04:27:43.591Z,99.99
2022-08-05T04:28:40.187Z,99.99
2022-08-05T04:29:40.161Z,99.99
2022-08-05T04:30:40.153Z,99.99
2022-08-05T04:31:40.124Z,99.99
2022-08-05T04:32:40.113Z,99.99
2022-08-05T04:34:17.903Z,99.99
2022-08-05T04:34:43.353Z,99.99
2022-08-05T04:36:15.804Z,99.99
2022-08-05T04:36:49.713Z,99.99
2022-08-05T04:38:02.181Z,99.99
2022-08-05T04:38:40.282Z,99.99
2022-08-05T04:39:40.197Z,99.99
2022-08-05T04:40:44.539Z,99.99
2022-08-05T04:41:39.963Z,99.99
2022-08-05T04:42:39.946Z,99.99
2022-08-05T04:43:46.679Z,99.99
2022-08-05T04:44:39.913Z,99.99
2022-08-05T04:45:48.998Z,99.99
2022-08-05T04:46:39.883Z,99.99
2022-08-05T04:47:42.978Z,99.99
2022-08-05T04:48:39.848Z,99.99
2022-08-05T04:50:01.353Z,99.99
2022-08-05T04:51:03.721Z,99.99
2022-08-05T04:51:39.803Z,99.99
2022-08-05T04:52:39.784Z,99.99
2022-08-05T04:53:39.768Z,99.99
2022-08-05T04:54:39.750Z,99.99
2022-08-05T04:56:33.382Z,99.99
2022-08-05T04:56:39.718Z,99.99
2022-08-05T04:57:39.702Z,99.99
2022-08-05T04:58:39.696Z,99.99
2022-08-05T04:59:40.827Z,99.99
2022-08-05T05:00:39.664Z,99.99
2022-08-05T05:02:08.338Z,99.99
2022-08-05T05:02:41.902Z,99.99
2022-08-05T05:03:42.165Z,99.99
2022-08-05T05:04:47.574Z,99.99
2022-08-05T05:06:36.550Z,99.99
2022-08-05T05:06:44.409Z,99.99
2022-08-05T05:07:39.544Z,99.99
2022-08-05T05:08:42.874Z,99.99
2022-08-05T05:09:39.519Z,99.99
2022-08-05T05:10:39.491Z,99.99
2022-08-05T05:11:52.771Z,99.99
2022-08-05T05:12:39.460Z,99.99
2022-08-05T05:13:43.171Z,99.99
2022-08-05T05:14:49.396Z,99.99
2022-08-05T05:16:01.796Z,99.99
2022-08-05T05:16:39.395Z,99.99
2022-08-05T05:17:56.585Z,99.99
2022-08-05T05:18:39.367Z,99.99
2022-08-05T05:19:44.286Z,99.99
2022-08-05T05:20:39.331Z,99.99
2022-08-05T05:21:39.316Z,99.99
2022-08-05T05:22:40.714Z,99.99
2022-08-05T05:24:02.413Z,99.99
2022-08-05T05:24:58.900Z,99.99
2022-08-05T05:25:41.227Z,99.99
2022-08-05T05:26:39.832Z,99.99
2022-08-05T05:27:44.676Z,99.99
2022-08-05T05:28:42.902Z,99.99
2022-08-05T05:29:40.807Z,99.99
2022-08-05T05:30:39.174Z,99.99
2022-08-05T05:32:00.165Z,99.99
2022-08-05T05:32:39.140Z,99.99
2022-08-05T05:33:58.748Z,99.99
2022-08-05T05:34:39.108Z,99.99
2022-08-05T05:35:39.744Z,99.99
2022-08-05T05:36:39.082Z,99.99
2022-08-05T05:37:58.923Z,99.99
2022-08-05T05:38:39.052Z,99.99
2022-08-05T05:39:39.065Z,99.99
2022-08-05T05:40:42.502Z,99.99
2022-08-05T05:41:40.178Z,99.99
2022-08-05T05:42:38.983Z,99.99
2022-08-05T05:43:56.979Z,99.99
2022-08-05T05:44:44.389Z,99.99
2022-08-05T05:45:38.939Z,99.99
2022-08-05T05:46:38.918Z,99.99
2022-08-05T05:48:06.575Z,99.99
2022-08-05T05:48:38.889Z,99.99
2022-08-05T05:49:38.879Z,99.99
2022-08-05T05:50:44.128Z,99.99
2022-08-05T05:51:49.668Z,99.99
2022-08-05T05:52:40.723Z,99.99
2022-08-05T05:53:54.150Z,99.99
2022-08-05T05:54:50.976Z,99.99
2022-08-05T05:55:51.569Z,99.99
2022-08-05T05:56:38.768Z,99.99
2022-08-05T05:57:52.348Z,99.99
2022-08-05T05:58:38.753Z,99.99
2022-08-05T05:59:40.408Z,99.99
2022-08-05T06:00:38.710Z,99.99
2022-08-05T06:01:39.396Z,99.99
2022-08-05T06:02:38.675Z,99.99
2022-08-05T06:03:53.932Z,99.99
2022-08-05T06:04:38.676Z,99.99
2022-08-05T06:05:38.631Z,99.99
2022-08-05T06:06:38.616Z,99.99
2022-08-05T06:07:42.128Z,99.99
2022-08-05T06:08:39.669Z,99.99
2022-08-05T06:10:00.183Z,99.99
2022-08-05T06:10:52.452Z,99.99
2022-08-05T06:11:39.386Z,99.99
2022-08-05T06:12:42.088Z,99.99
2022-08-05T06:13:40.725Z,99.99
2022-08-05T06:14:40.223Z,99.99
2022-08-05T06:16:30.749Z,99.99
2022-08-05T06:16:38.462Z,99.99
2022-08-05T06:17:52.757Z,99.99
2022-08-05T06:18:39.358Z,99.99
2022-08-05T06:19:38.423Z,99.99
2022-08-05T06:20:38.405Z,99.99
2022-08-05T06:21:42.955Z,99.99
2022-08-05T06:22:40.414Z,99.99
2022-08-05T06:23:43.729Z,99.99
2022-08-05T06:24:38.363Z,99.99
2022-08-05T06:26:12.114Z,99.99
2022-08-05T06:26:38.342Z,99.99
2022-08-05T06:28:10.865Z,99.99
2022-08-05T06:28:38.289Z,99.99
2022-08-05T06:29:49.529Z,99.99
2022-08-05T06:30:38.264Z,99.99
2022-08-05T06:31:38.247Z,99.99
2022-08-05T06:32:38.225Z,99.99
2022-08-05T06:34:07.157Z,99.99
2022-08-05T06:34:38.210Z,99.99
2022-08-05T06:36:08.077Z,99.99
2022-08-05T06:36:56.745Z,99.99
2022-08-05T06:37:55.842Z,99.99
2022-08-05T06:38:38.145Z,99.99
2022-08-05T06:39:38.230Z,99.99
2022-08-05T06:40:38.116Z,99.99
2022-08-05T06:41:40.545Z,99.99
2022-08-05T06:42:39.888Z,99.99
2022-08-05T06:43:57.957Z,99.99
2022-08-05T06:44:38.070Z,99.99
2022-08-05T06:45:44.925Z,99.99
2022-08-05T06:46:38.041Z,99.99
2022-08-05T06:48:36.310Z,99.99
2022-08-05T06:48:56.235Z,99.99
2022-08-05T06:50:01.172Z,99.99
2022-08-05T06:50:37.981Z,99.99
2022-08-05T06:51:40.898Z,99.99
2022-08-05T06:52:40.397Z,99.99
2022-08-05T06:53:39.282Z,99.99
2022-08-05T06:54:37.927Z,99.99
2022-08-05T06:55:37.913Z,99.99
2022-08-05T06:56:37.900Z,99.99
2022-08-05T06:57:57.201Z,99.99
2022-08-05T06:58:38.186Z,99.99
2022-08-05T06:59:38.823Z,99.99
2022-08-05T07:00:37.909Z,99.99
2022-08-05T07:01:40.661Z,99.99
2022-08-05T07:02:37.836Z,99.99
2022-08-05T07:03:37.806Z,99.99
2022-08-05T07:04:37.791Z,99.99
2022-08-05T07:05:41.378Z,99.99
2022-08-05T07:06:37.773Z,99.99
2022-08-05T07:07:43.804Z,99.99
2022-08-05T07:08:37.745Z,99.99
2022-08-05T07:09:40.630Z,99.99
2022-08-05T07:10:37.722Z,99.99
2022-08-05T07:11:40.013Z,99.99
2022-08-05T07:12:37.697Z,99.99
2022-08-05T07:13:58.734Z,99.99
2022-08-05T07:14:37.681Z,99.99
2022-08-05T07:16:00.782Z,99.99
2022-08-05T07:18:00.539Z,99.99
2022-08-05T07:18:01.319Z,99.99
2022-08-05T07:18:37.623Z,99.99
2022-08-05T07:20:38.884Z,99.99
2022-08-05T07:22:00.242Z,99.99
2022-08-05T07:22:37.577Z,99.99
2022-08-05T07:23:37.596Z,99.99
2022-08-05T07:24:44.012Z,99.99
2022-08-05T07:25:56.273Z,99.99
2022-08-05T07:26:37.539Z,99.99
2022-08-05T07:27:56.429Z,99.99
2022-08-05T07:28:37.514Z,99.99
2022-08-05T07:30:27.961Z,99.99
2022-08-05T07:30:38.733Z,99.37
2022-08-05T07:31:41.047Z,99.99
2022-08-05T07:32:37.472Z,99.99
2022-08-05T07:33:37.673Z,99.99
2022-08-05T07:34:42.003Z,99.99
2022-08-05T07:36:02.607Z,99.99
2022-08-05T07:36:37.425Z,99.99
2022-08-05T07:37:39.395Z,99.99
2022-08-05T07:38:43.259Z,99.99
2022-08-05T07:40:25.951Z,99.99
2022-08-05T07:40:37.435Z,99.99
2022-08-05T07:42:14.610Z,99.99
2022-08-05T07:42:37.415Z,99.99
2022-08-05T07:43:37.352Z,99.99
2022-08-05T07:44:37.350Z,99.99
2022-08-05T07:45:56.489Z,99.99
2022-08-05T07:46:37.325Z,99.99
2022-08-05T07:47:42.324Z,96.79
2022-08-05T07:49:03.075Z,97.47
2022-08-05T07:49:43.358Z,97.37
2022-08-05T07:50:37.285Z,92.91
2022-08-05T07:51:40.627Z,93.39
2022-08-05T07:52:37.260Z,92.42
2022-08-05T07:53:50.573Z,92.66
2022-08-05T07:54:41.182Z,91.50
2022-08-05T07:56:05.121Z,91.59
2022-08-05T07:57:02.527Z,90.67
2022-08-05T07:57:58.858Z,89.36
2022-08-05T07:58:57.756Z,91.40
2022-08-05T07:59:39.709Z,90.62
2022-08-05T08:00:37.197Z,90.62
2022-08-05T08:01:41.536Z,91.59
2022-08-05T08:03:13.847Z,93.29
2022-08-05T08:03:44.631Z,91.55
2022-08-05T08:04:37.980Z,91.64
2022-08-05T08:05:39.842Z,94.36
2022-08-05T08:06:37.106Z,93.29
2022-08-05T08:07:39.687Z,92.28
2022-08-05T08:08:37.090Z,94.17
2022-08-05T08:09:37.470Z,93.39
2022-08-05T08:10:37.065Z,97.47
2022-08-05T08:11:47.092Z,93.92
2022-08-05T08:12:49.423Z,95.67
2022-08-05T08:13:42.778Z,91.59
2022-08-05T08:14:37.012Z,92.81
2022-08-05T08:16:35.915Z,93.01
2022-08-05T08:16:50.339Z,93.10
2022-08-05T08:17:36.992Z,94.65
2022-08-05T08:18:37.496Z,93.44
2022-08-05T08:20:10.277Z,93.25
2022-08-05T08:20:43.691Z,93.05
2022-08-05T08:21:36.940Z,94.60
2022-08-05T08:22:36.927Z,94.60
2022-08-05T08:24:01.768Z,93.93
2022-08-05T08:24:51.360Z,91.25
2022-08-05T08:25:59.747Z,90.87
2022-08-05T08:26:36.894Z,92.22
2022-08-05T08:27:45.038Z,93.10
2022-08-05T08:28:59.574Z,93.68
2022-08-05T08:30:06.675Z,94.02
2022-08-05T08:30:47.604Z,92.67
2022-08-05T08:31:36.826Z,92.38
2022-08-05T08:32:40.826Z,92.86
2022-08-05T08:33:37.964Z,92.67
2022-08-05T08:34:36.796Z,93.15
2022-08-05T08:35:41.607Z,94.42
2022-08-05T08:36:52.510Z,91.94
2022-08-05T08:37:36.775Z,92.67
2022-08-05T08:38:37.746Z,93.35
2022-08-05T08:39:37.165Z,92.76
2022-08-05T08:40:36.724Z,93.25
2022-08-05T08:41:51.808Z,93.44
2022-08-05T08:42:50.777Z,93.25
2022-08-05T08:45:17.126Z,95.48
2022-08-05T08:45:19.496Z,93.54
2022-08-05T08:45:36.662Z,91.89
2022-08-05T08:46:36.660Z,93.83
2022-08-05T08:48:06.381Z,91.02
2022-08-05T08:49:03.375Z,91.79
2022-08-05T08:50:22.655Z,91.70
2022-08-05T08:51:22.204Z,92.18
2022-08-05T08:52:03.574Z,89.66
2022-08-05T08:52:36.584Z,90.05
2022-08-05T08:53:36.575Z,89.13
2022-08-05T08:54:36.718Z,90.10
2022-08-05T08:56:02.976Z,89.32
2022-08-05T08:56:36.536Z,90.64
2022-08-05T08:57:48.378Z,91.61
2022-08-05T08:58:43.132Z,92.19
2022-08-05T08:59:36.516Z,92.48
2022-08-05T09:00:36.538Z,91.89
2022-08-05T09:01:36.482Z,93.35
2022-08-05T09:02:36.493Z,93.16
2022-08-05T09:03:40.726Z,92.77
2022-08-05T09:04:36.445Z,92.86
2022-08-05T09:05:39.019Z,92.58
2022-08-05T09:06:36.476Z,92.19
2022-08-05T09:07:39.981Z,92.19
2022-08-05T09:08:40.090Z,92.53
2022-08-05T09:09:36.391Z,93.98
2022-08-05T09:10:36.375Z,93.11
2022-08-05T09:11:51.025Z,93.70
2022-08-05T09:12:36.350Z,93.45
2022-08-05T09:14:01.114Z,94.32
2022-08-05T09:14:58.634Z,95.97
2022-08-05T09:15:37.028Z,95.49
2022-08-05T09:16:36.298Z,95.44
2022-08-05T09:17:42.591Z,96.70
2022-08-05T09:18:39.000Z,97.18
2022-08-05T09:19:55.115Z,98.54
2022-08-05T09:20:37.717Z,99.99
2022-08-05T09:22:23.073Z,98.73
2022-08-05T09:22:36.385Z,99.99
2022-08-05T09:23:37.290Z,99.12
2022-08-05T09:24:36.213Z,98.83
2022-08-05T09:26:02.797Z,99.26
2022-08-05T09:26:36.176Z,99.94
2022-08-05T09:28:03.779Z,98.78
2022-08-05T09:28:36.152Z,98.00
2022-08-05T09:29:36.136Z,99.99
2022-08-05T09:30:36.131Z,99.99
2022-08-05T09:32:40.168Z,99.99
2022-08-05T09:32:40.300Z,99.99
2022-08-05T09:33:36.088Z,97.47
2022-08-05T09:34:36.076Z,98.73
2022-08-05T09:35:36.057Z,99.99
2022-08-05T09:36:36.045Z,99.41
2022-08-05T09:38:16.621Z,98.83
2022-08-05T09:38:36.026Z,98.15
2022-08-05T09:39:41.935Z,99.65
2022-08-05T09:40:36.030Z,99.99
2022-08-05T09:41:39.004Z,99.99
2022-08-05T09:42:35.974Z,96.84
2022-08-05T09:43:41.927Z,97.13
2022-08-05T09:44:35.964Z,96.94
2022-08-05T09:46:06.996Z,94.81
2022-08-05T09:46:35.927Z,95.78
2022-08-05T09:47:55.197Z,97.33
2022-08-05T09:48:35.912Z,96.01
2022-08-05T09:49:54.804Z,96.41
2022-08-05T09:50:37.955Z,97.52
2022-08-05T09:51:36.542Z,97.37
2022-08-05T09:52:35.855Z,94.12
2022-08-05T09:53:54.556Z,94.90
2022-08-05T09:54:35.839Z,95.33
2022-08-05T09:55:57.053Z,90.86
2022-08-05T09:56:35.815Z,89.89
2022-08-05T09:57:39.533Z,92.41
2022-08-05T09:58:35.794Z,93.23
2022-08-05T09:59:37.104Z,88.56
2022-08-05T10:00:35.775Z,88.56
2022-08-05T10:01:35.767Z,87.16
2022-08-05T10:02:35.810Z,85.66
2022-08-05T10:03:38.673Z,86.14
2022-08-05T10:04:35.738Z,88.57
2022-08-05T10:05:35.732Z,91.63
2022-08-05T10:06:35.722Z,85.85
2022-08-05T10:07:50.385Z,86.53
2022-08-05T10:08:38.138Z,87.89
2022-08-05T10:09:45.121Z,89.35
2022-08-05T10:10:35.680Z,88.48
2022-08-05T10:11:35.705Z,87.40
2022-08-05T10:12:35.907Z,88.23
2022-08-05T10:13:45.853Z,88.70
2022-08-05T10:14:35.641Z,86.31
2022-08-05T10:15:35.639Z,84.79
2022-08-05T10:16:41.832Z,80.99
2022-08-05T10:17:37.583Z,82.26
2022-08-05T10:18:35.612Z,81.67
2022-08-05T10:20:04.504Z,81.09
2022-08-05T10:20:35.608Z,82.80
2022-08-05T10:21:40.204Z,82.23
2022-08-05T10:22:39.131Z,83.95
2022-08-05T10:23:59.900Z,84.33
2022-08-05T10:24:35.575Z,84.05
2022-08-05T10:25:35.556Z,83.17
2022-08-05T10:26:35.550Z,85.16
2022-08-05T10:28:09.145Z,83.46
2022-08-05T10:28:36.411Z,84.61
2022-08-05T10:30:06.719Z,82.70
2022-08-05T10:31:19.976Z,80.95
2022-08-05T10:32:51.790Z,81.38
2022-08-05T10:32:53.916Z,82.84
2022-08-05T10:33:36.018Z,78.94
2022-08-05T10:34:35.487Z,81.03
2022-08-05T10:35:40.572Z,82.26
2022-08-05T10:36:35.477Z,83.23
2022-08-05T10:37:40.286Z,80.99
2022-08-05T10:38:35.454Z,80.64
2022-08-05T10:39:59.386Z,79.14
2022-08-05T10:40:35.472Z,80.60
2022-08-05T10:41:44.923Z,81.96
2022-08-05T10:42:35.543Z,82.41
2022-08-05T10:43:35.939Z,81.26
2022-08-05T10:44:35.410Z,82.76
2022-08-05T10:45:40.111Z,82.67
2022-08-05T10:46:35.397Z,82.80
2022-08-05T10:47:35.390Z,83.23
2022-08-05T10:48:52.487Z,81.81
2022-08-05T10:49:48.772Z,80.15
2022-08-05T10:50:36.899Z,81.85
2022-08-05T10:51:35.377Z,79.96
2022-08-05T10:52:35.352Z,81.38
2022-08-05T10:53:35.361Z,83.48
2022-08-05T10:54:46.815Z,83.34
2022-08-05T10:56:03.520Z,84.03
2022-08-05T10:56:35.329Z,86.07
2022-08-05T10:57:35.321Z,85.29
2022-08-05T10:58:36.206Z,84.36
2022-08-05T11:00:03.155Z,84.59
2022-08-05T11:00:35.294Z,84.07
2022-08-05T11:01:54.982Z,84.99
2022-08-05T11:02:38.149Z,81.96
2022-08-05T11:03:35.295Z,82.06
2022-08-05T11:04:36.639Z,84.07
2022-08-05T11:05:35.291Z,83.31
2022-08-05T11:06:35.255Z,86.22
2022-08-05T11:08:02.998Z,86.87
2022-08-05T11:08:37.238Z,88.57
2022-08-05T11:09:45.451Z,87.99
2022-08-05T11:10:35.229Z,89.49
2022-08-05T11:11:44.608Z,88.28
2022-08-05T11:12:35.222Z,87.99
2022-08-05T11:13:35.209Z,87.99
2022-08-05T11:15:01.315Z,88.57
2022-08-05T11:16:00.938Z,90.22
2022-08-05T11:16:56.086Z,88.57
2022-08-05T11:17:58.882Z,88.13
2022-08-05T11:18:35.189Z,87.64
2022-08-05T11:20:10.821Z,86.71
2022-08-05T11:20:35.150Z,88.06
2022-08-05T11:21:48.971Z,88.01
2022-08-05T11:22:35.167Z,84.07
2022-08-05T11:24:04.528Z,84.81
2022-08-05T11:24:35.117Z,85.74
2022-08-05T11:26:04.943Z,88.76
2022-08-05T11:26:35.105Z,85.93
2022-08-05T11:27:50.824Z,87.01
2022-08-05T11:28:36.033Z,86.57
2022-08-05T11:29:35.079Z,87.16
2022-08-05T11:30:35.081Z,86.96
2022-08-05T11:31:58.122Z,86.96
2022-08-05T11:32:35.063Z,86.92
2022-08-05T11:33:45.997Z,88.42
2022-08-05T11:34:35.045Z,88.32
2022-08-05T11:35:35.038Z,86.57
2022-08-05T11:36:42.883Z,86.82
2022-08-05T11:38:28.166Z,87.89
2022-08-05T11:38:37.143Z,88.38
2022-08-05T11:39:35.060Z,86.82
2022-08-05T11:40:35.002Z,85.60
2022-08-05T11:41:58.091Z,84.96
2022-08-05T11:42:40.581Z,84.33
2022-08-05T11:44:04.968Z,84.72
2022-08-05T11:44:52.740Z,85.41
2022-08-05T11:46:23.490Z,85.44
2022-08-05T11:46:35.026Z,84.38
2022-08-05T11:47:48.932Z,84.05
2022-08-05T11:48:34.963Z,85.11
2022-08-05T11:49:34.936Z,85.85
2022-08-05T11:50:34.920Z,85.75
2022-08-05T11:51:43.600Z,87.50
2022-08-05T11:52:34.902Z,87.99
2022-08-05T11:53:40.942Z,87.99
2022-08-05T11:54:35.105Z,87.79
2022-08-05T11:55:36.275Z,87.99
2022-08-05T11:56:41.046Z,87.89
2022-08-05T11:58:07.943Z,86.82
2022-08-05T11:58:34.859Z,87.02
2022-08-05T11:59:49.530Z,89.15
2022-08-05T12:00:38.549Z,88.76
2022-08-05T12:01:34.836Z,85.75
2022-08-05T12:02:36.124Z,85.85
2022-08-05T12:03:34.842Z,86.63
2022-08-05T12:04:34.819Z,86.38
2022-08-05T12:05:39.862Z,85.79
2022-08-05T12:06:34.794Z,85.99
2022-08-05T12:08:03.274Z,85.11
2022-08-05T12:08:34.772Z,86.08
2022-08-05T12:09:39.258Z,85.02
2022-08-05T12:10:43.442Z,84.72
2022-08-05T12:11:40.212Z,88.90
2022-08-05T12:12:34.753Z,84.63
2022-08-05T12:13:48.954Z,84.82
2022-08-05T12:14:34.736Z,85.27
2022-08-05T12:15:37.974Z,85.94
2022-08-05T12:16:34.712Z,86.92
2022-08-05T12:18:00.830Z,85.61
2022-08-05T12:18:34.696Z,87.36
2022-08-05T12:20:27.718Z,86.82
2022-08-05T12:20:34.725Z,85.36
2022-08-05T12:21:39.161Z,85.79
2022-08-05T12:22:34.799Z,85.21
2022-08-05T12:23:34.660Z,87.10
2022-08-05T12:24:34.652Z,85.21
2022-08-05T12:25:34.639Z,85.83
2022-08-05T12:26:34.634Z,85.02
2022-08-05T12:27:34.833Z,85.79
2022-08-05T12:28:34.619Z,85.11
2022-08-05T12:29:38.744Z,84.92
2022-08-05T12:30:34.843Z,85.11
2022-08-05T12:31:45.954Z,86.18
2022-08-05T12:32:34.586Z,85.69
2022-08-05T12:33:36.526Z,85.41
2022-08-05T12:34:35.702Z,85.99
2022-08-05T12:35:37.186Z,86.03
2022-08-05T12:36:34.623Z,84.96
2022-08-05T12:37:34.605Z,85.16
2022-08-05T12:38:34.536Z,85.16
2022-08-05T12:39:38.554Z,85.58
2022-08-05T12:40:34.525Z,84.03
2022-08-05T12:41:34.737Z,83.26
2022-08-05T12:42:34.505Z,83.51
2022-08-05T12:43:34.498Z,85.36
2022-08-05T12:44:34.513Z,85.36
2022-08-05T12:45:49.808Z,85.85
2022-08-05T12:46:34.484Z,86.14
2022-08-05T12:47:34.490Z,85.66
2022-08-05T12:48:34.473Z,84.97
2022-08-05T12:50:04.198Z,87.25
2022-08-05T12:50:34.443Z,85.69
2022-08-05T12:52:13.620Z,85.74
2022-08-05T12:52:38.754Z,85.25
2022-08-05T12:53:37.041Z,84.86